American Integrity — WDD2875 — position and weather

sailwx.info

Track history (hours):
 
Tides and Currents Weather Stations Pressure Air Temp Water Temp Dewpoint Dewpoint Depression Visibility Wind Speed Wind Dir Waves Ship Positions

American Integrity

Owner: American Steamship Company, Williamsville, NY. More information available from US FCC via Universal Licensing System and Coast Guard Vessel Documentation Center.

Last reported at 2016-May-04 18:34 UTC. Time now 2016-May-04 19:21 UTC.
Position N 46°45' W 092°06'.

; draft 8 m.

Type: Cargo ship. MMSI: 367120990.

Date/timePositionNaut miles runAvg speedWind from/ knotsBaromVisibWave heightAir tempDewpointWater temp
2016-May-04 18:34N 46°45' W 092°06'0 0.0
2016-May-04 17:33N 46°45' W 092°06'3 4.9
2016-May-04 17:00N 46°48' W 092°06'3 6.2 360 / 311013.2 1.012.7 1.6
2016-May-04 16:33N 46°45' W 092°06'0 0.0
2016-May-04 15:33N 46°45' W 092°06'0 0.0
2016-May-04 14:33N 46°45' W 092°06'0 0.0
2016-May-04 13:33N 46°45' W 092°06'0 0.0
2016-May-04 12:33N 46°45' W 092°06'0 0.0
2016-May-04 11:33N 46°45' W 092°06'0 0.0
2016-May-04 10:33N 46°45' W 092°06'0 0.0
2016-May-04 09:33N 46°45' W 092°06'0 0.0
2016-May-04 08:34N 46°45' W 092°06'0 0.0
2016-May-04 07:33N 46°45' W 092°06'0 0.0
2016-May-04 06:34N 46°45' W 092°06'3 4.8
2016-May-04 06:00N 46°48' W 092°06'3 6.2 350 / 281010.4 9.9 1.6
2016-May-04 05:33N 46°45' W 092°06'0 0.0
2016-May-04 04:33N 46°45' W 092°06'0 0.0
2016-May-04 03:34N 46°45' W 092°06'0 0.0
2016-May-04 02:33N 46°45' W 092°06'0 0.0
2016-May-04 01:33N 46°45' W 092°06'0 0.0
2016-May-04 00:33N 46°45' W 092°06'0 0.0
2016-May-03 23:33N 46°45' W 092°06'0 0.0
2016-May-03 22:33N 46°45' W 092°06'0 0.0
2016-May-03 21:33N 46°45' W 092°06'0 0.0
2016-May-03 20:33N 46°45' W 092°06'0 0.0
2016-May-03 19:33N 46°45' W 092°06'3 4.8
2016-May-03 19:00N 46°48' W 092°06'3 6.3 300 / 231005.0 0.517.7 1.6
2016-May-03 18:34N 46°45' W 092°06'0 0.0
2016-May-03 17:33N 46°45' W 092°06'0 0.0
2016-May-03 16:34N 46°45' W 092°06'0 0.0
2016-May-03 15:34N 46°45' W 092°06'0 0.0
2016-May-03 14:34N 46°45' W 092°06'0 0.0
2016-May-03 13:33N 46°45' W 092°06'0 0.0
2016-May-03 12:33N 46°45' W 092°06'0 0.0
2016-May-03 11:33N 46°45' W 092°06'0 0.0
2016-May-03 10:33N 46°45' W 092°06'0 0.0
2016-May-03 09:33N 46°45' W 092°06'0 0.0
2016-May-03 08:33N 46°45' W 092°06'0 0.0
2016-May-03 07:33N 46°45' W 092°06'0 0.0
2016-May-03 06:33N 46°45' W 092°06'0 0.0
2016-May-03 05:34N 46°45' W 092°06'0 0.0
2016-May-03 04:33N 46°45' W 092°06'0 0.0
2016-May-03 03:34N 46°45' W 092°06'0 0.0
2016-May-03 02:34N 46°45' W 092°06'0 0.0
2016-May-03 01:34N 46°45' W 092°06'0 0.2
2016-May-03 00:34N 46°45' W 092°06'8 8.1
2016-May-02 23:34N 46°50' W 091°56'1313.0
2016-May-02 22:33N 46°57' W 091°40'1313.0
2016-May-02 21:32N 47°03' W 091°23'18812.9
2016-May-02 07:00N 47°18' W 086°48'144 9.3 010 / 131016.510.8 1.0 4.9 1.1
2016-May-01 15:33N 45°59' W 083°53'  
2016-Apr-29 05:00N 45°12' W 083°00'5612.5 090 / 81017.610.8 0.5 2.7 2.7
2016-Apr-29 00:28N 45°55' W 083°52'164 8.4
2016-Apr-28 05:00N 47°24' W 087°12'16910.8 360 / 101016.910.8 1.0 3.3 1.1
2016-Apr-27 13:19N 47°05' W 091°19'911.4
2016-Apr-27 12:33N 47°00' W 091°30'1111.4
2016-Apr-27 11:33N 46°54' W 091°44'1110.9
2016-Apr-27 10:33N 46°49' W 091°58'6 6.3
2016-Apr-27 09:34N 46°45' W 092°06'1 1.2
2016-Apr-27 08:34N 46°45' W 092°07'0 0.0
2016-Apr-27 07:34N 46°45' W 092°07'0 0.0
2016-Apr-27 06:34N 46°45' W 092°07'0 0.0
2016-Apr-27 05:33N 46°45' W 092°07'0 0.0
2016-Apr-27 04:33N 46°45' W 092°07'0 0.0
2016-Apr-27 03:34N 46°45' W 092°07'0 0.0
2016-Apr-27 02:33N 46°45' W 092°07'0 0.0
2016-Apr-27 01:33N 46°45' W 092°07'0 0.0
2016-Apr-27 00:33N 46°45' W 092°07'0 0.0
2016-Apr-26 23:33N 46°45' W 092°07'0 0.2
2016-Apr-26 22:33N 46°45' W 092°07'1 1.4
2016-Apr-26 21:33N 46°45' W 092°06'0 0.3
2016-Apr-26 20:34N 46°46' W 092°06'0 0.0
2016-Apr-26 19:34N 46°46' W 092°06'0 0.0
2016-Apr-26 18:34N 46°46' W 092°06'0 0.0
2016-Apr-26 17:34N 46°46' W 092°06'0 0.0
2016-Apr-26 16:34N 46°46' W 092°06'0 0.0
2016-Apr-26 15:34N 46°46' W 092°06'0 0.0
2016-Apr-26 14:34N 46°46' W 092°06'0 0.3
2016-Apr-26 13:33N 46°46' W 092°06'7 7.4
2016-Apr-26 12:33N 46°50' W 091°56'9 9.2
2016-Apr-26 11:33N 46°53' W 091°44'1111.4
2016-Apr-26 10:33N 46°57' W 091°29'85 4.8
2016-Apr-25 17:00N 47°42' W 089°42'58 6.4 080 / 271011.1 5.4 3.0 2.7
2016-Apr-25 08:00N 47°54' W 088°18'   090 / 181015.210.8 1.5 4.4 1.1
Track history (hours):
 
Tides and Currents Weather Stations Pressure Air Temp Water Temp Dewpoint Dewpoint Depression Visibility Wind Speed Wind Dir Waves Ship Positions

American Integrity

Owner: American Steamship Company, Williamsville, NY. More information available from US FCC via Universal Licensing System and Coast Guard Vessel Documentation Center.

Last reported at 2016-May-04 18:34 UTC. Time now 2016-May-04 19:21 UTC.
Position N 46°45' W 092°06'.

; draft 8 m.

Type: Cargo ship. MMSI: 367120990.

Date/timePositionNaut miles runAvg speedWind from/ knotsBaromVisibWave heightAir tempDewpointWater temp
2016-May-04 18:34N 46°45' W 092°06'0 0.0
2016-May-04 17:33N 46°45' W 092°06'3 4.9
2016-May-04 17:00N 46°48' W 092°06'3 6.2 360 / 311013.2 1.012.7 1.6
2016-May-04 16:33N 46°45' W 092°06'0 0.0
2016-May-04 15:33N 46°45' W 092°06'0 0.0
2016-May-04 14:33N 46°45' W 092°06'0 0.0
2016-May-04 13:33N 46°45' W 092°06'0 0.0
2016-May-04 12:33N 46°45' W 092°06'0 0.0
2016-May-04 11:33N 46°45' W 092°06'0 0.0
2016-May-04 10:33N 46°45' W 092°06'0 0.0
2016-May-04 09:33N 46°45' W 092°06'0 0.0
2016-May-04 08:34N 46°45' W 092°06'0 0.0
2016-May-04 07:33N 46°45' W 092°06'0 0.0
2016-May-04 06:34N 46°45' W 092°06'3 4.8
2016-May-04 06:00N 46°48' W 092°06'3 6.2 350 / 281010.4 9.9 1.6
2016-May-04 05:33N 46°45' W 092°06'0 0.0
2016-May-04 04:33N 46°45' W 092°06'0 0.0
2016-May-04 03:34N 46°45' W 092°06'0 0.0
2016-May-04 02:33N 46°45' W 092°06'0 0.0
2016-May-04 01:33N 46°45' W 092°06'0 0.0
2016-May-04 00:33N 46°45' W 092°06'0 0.0
2016-May-03 23:33N 46°45' W 092°06'0 0.0
2016-May-03 22:33N 46°45' W 092°06'0 0.0
2016-May-03 21:33N 46°45' W 092°06'0 0.0
2016-May-03 20:33N 46°45' W 092°06'0 0.0
2016-May-03 19:33N 46°45' W 092°06'3 4.8
2016-May-03 19:00N 46°48' W 092°06'3 6.3 300 / 231005.0 0.517.7 1.6
2016-May-03 18:34N 46°45' W 092°06'0 0.0
2016-May-03 17:33N 46°45' W 092°06'0 0.0
2016-May-03 16:34N 46°45' W 092°06'0 0.0
2016-May-03 15:34N 46°45' W 092°06'0 0.0
2016-May-03 14:34N 46°45' W 092°06'0 0.0
2016-May-03 13:33N 46°45' W 092°06'0 0.0
2016-May-03 12:33N 46°45' W 092°06'0 0.0
2016-May-03 11:33N 46°45' W 092°06'0 0.0
2016-May-03 10:33N 46°45' W 092°06'0 0.0
2016-May-03 09:33N 46°45' W 092°06'0 0.0
2016-May-03 08:33N 46°45' W 092°06'0 0.0
2016-May-03 07:33N 46°45' W 092°06'0 0.0
2016-May-03 06:33N 46°45' W 092°06'0 0.0
2016-May-03 05:34N 46°45' W 092°06'0 0.0
2016-May-03 04:33N 46°45' W 092°06'0 0.0
2016-May-03 03:34N 46°45' W 092°06'0 0.0
2016-May-03 02:34N 46°45' W 092°06'0 0.0
2016-May-03 01:34N 46°45' W 092°06'0 0.2
2016-May-03 00:34N 46°45' W 092°06'8 8.1
2016-May-02 23:34N 46°50' W 091°56'1313.0
2016-May-02 22:33N 46°57' W 091°40'1313.0
2016-May-02 21:32N 47°03' W 091°23'18812.9
2016-May-02 07:00N 47°18' W 086°48'144 9.3 010 / 131016.510.8 1.0 4.9 1.1
2016-May-01 15:33N 45°59' W 083°53'  
2016-Apr-29 05:00N 45°12' W 083°00'5612.5 090 / 81017.610.8 0.5 2.7 2.7
2016-Apr-29 00:28N 45°55' W 083°52'164 8.4
2016-Apr-28 05:00N 47°24' W 087°12'16910.8 360 / 101016.910.8 1.0 3.3 1.1
2016-Apr-27 13:19N 47°05' W 091°19'911.4
2016-Apr-27 12:33N 47°00' W 091°30'1111.4
2016-Apr-27 11:33N 46°54' W 091°44'1110.9
2016-Apr-27 10:33N 46°49' W 091°58'6 6.3
2016-Apr-27 09:34N 46°45' W 092°06'1 1.2
2016-Apr-27 08:34N 46°45' W 092°07'0 0.0
2016-Apr-27 07:34N 46°45' W 092°07'0 0.0
2016-Apr-27 06:34N 46°45' W 092°07'0 0.0
2016-Apr-27 05:33N 46°45' W 092°07'0 0.0
2016-Apr-27 04:33N 46°45' W 092°07'0 0.0
2016-Apr-27 03:34N 46°45' W 092°07'0 0.0
2016-Apr-27 02:33N 46°45' W 092°07'0 0.0
2016-Apr-27 01:33N 46°45' W 092°07'0 0.0
2016-Apr-27 00:33N 46°45' W 092°07'0 0.0
2016-Apr-26 23:33N 46°45' W 092°07'0 0.2
2016-Apr-26 22:33N 46°45' W 092°07'1 1.4
2016-Apr-26 21:33N 46°45' W 092°06'0 0.3
2016-Apr-26 20:34N 46°46' W 092°06'0 0.0
2016-Apr-26 19:34N 46°46' W 092°06'0 0.0
2016-Apr-26 18:34N 46°46' W 092°06'0 0.0
2016-Apr-26 17:34N 46°46' W 092°06'0 0.0
2016-Apr-26 16:34N 46°46' W 092°06'0 0.0
2016-Apr-26 15:34N 46°46' W 092°06'0 0.0
2016-Apr-26 14:34N 46°46' W 092°06'0 0.3
2016-Apr-26 13:33N 46°46' W 092°06'7 7.4
2016-Apr-26 12:33N 46°50' W 091°56'9 9.2
2016-Apr-26 11:33N 46°53' W 091°44'1111.4
2016-Apr-26 10:33N 46°57' W 091°29'85 4.8
2016-Apr-25 17:00N 47°42' W 089°42'58 6.4 080 / 271011.1 5.4 3.0 2.7
2016-Apr-25 08:00N 47°54' W 088°18'   090 / 181015.210.8 1.5 4.4 1.1

Dump ship's entire track history